Time;durP1;ratioP1;P1;durP2;ratioP2;P2;SDS_P1;SDS_P2;PMS_P1;PMS_P2;Temp;Humidity;BMP_temperature;BMP_pressure;BME280_temperature;BME280_humidity;BME280_pressure;Samples;Min_cycle;Max_cycle;Signal;HPM_P1;HPM_P2
2021/07/28 00:02:07;;;;;;;16.33;12.57;;;18.30;59.50;;;;;;5079599;28;20056;-70
2021/07/28 00:04:56;;;;;;;19.48;12.90;;;18.30;61.20;;;;;;5076628;28;20138;-70
2021/07/28 00:07:44;;;;;;;17.63;12.52;;;18.30;61.30;;;;;;5062494;28;20464;-70
2021/07/28 00:10:33;;;;;;;16.88;13.35;;;18.30;61.40;;;;;;5080106;28;20564;-71
2021/07/28 00:13:22;;;;;;;18.50;13.63;;;18.20;62.00;;;;;;5068754;28;20127;-70
2021/07/28 00:16:13;;;;;;;17.48;12.32;;;18.20;62.90;;;;;;5076283;28;20803;-70
2021/07/28 00:19:06;;;;;;;18.13;13.63;;;18.20;62.90;;;;;;5073947;28;20040;-70
2021/07/28 00:25:01;;;;;;;20.90;14.30;;;18.10;63.20;;;;;;5066045;28;20035;-71
2021/07/28 00:27:50;;;;;;;17.63;13.07;;;18.10;64.90;;;;;;5079686;28;20182;-71
2021/07/28 00:30:40;;;;;;;20.27;13.65;;;18.10;63.90;;;;;;5083270;28;20519;-71
2021/07/28 00:33:36;;;;;;;20.42;13.90;;;18.00;64.80;;;;;;5082873;28;20059;-71
2021/07/28 00:36:24;;;;;;;16.17;12.55;;;18.00;64.60;;;;;;5079325;28;20059;-71
2021/07/28 00:39:13;;;;;;;15.77;11.88;;;18.20;65.10;;;;;;5075983;28;20052;-71
2021/07/28 00:42:01;;;;;;;16.35;12.40;;;18.10;64.90;;;;;;5086117;28;20063;-71
2021/07/28 00:44:54;;;;;;;16.50;12.13;;;18.10;64.40;;;;;;5081875;28;20044;-71
2021/07/28 00:47:53;;;;;;;16.70;12.57;;;18.20;64.50;;;;;;5082106;28;20457;-71
2021/07/28 00:50:45;;;;;;;16.67;12.70;;;18.20;64.90;;;;;;5050537;28;20514;-70
2021/07/28 00:53:33;;;;;;;16.80;12.60;;;18.20;65.10;;;;;;5080467;28;20040;-70
2021/07/28 00:56:22;;;;;;;15.73;11.80;;;18.20;64.20;;;;;;5077466;28;20074;-71
2021/07/28 00:59:11;;;;;;;16.33;12.20;;;18.00;63.10;;;;;;5080598;28;20044;-71
2021/07/28 01:01:59;;;;;;;17.85;13.80;;;18.00;64.30;;;;;;5084246;28;20124;-71
2021/07/28 01:04:48;;;;;;;18.25;12.65;;;18.00;64.90;;;;;;5082307;28;20067;-71
2021/07/28 01:07:38;;;;;;;16.77;12.63;;;18.00;64.90;;;;;;5077307;28;20130;-71
2021/07/28 01:10:26;;;;;;;17.73;13.15;;;18.20;65.90;;;;;;5079974;28;20112;-71
2021/07/28 01:13:16;;;;;;;17.63;13.35;;;18.30;66.30;;;;;;5079226;28;20087;-72
2021/07/28 01:16:07;;;;;;;17.92;12.75;;;18.30;65.90;;;;;;5079332;28;20738;-71
2021/07/28 01:18:56;;;;;;;18.85;12.85;;;18.30;65.20;;;;;;5082412;28;20422;-72
2021/07/28 01:21:46;;;;;;;17.48;12.82;;;18.20;64.40;;;;;;5079977;28;20437;-70
2021/07/28 01:24:36;;;;;;;16.60;12.48;;;18.20;65.10;;;;;;5079686;28;20059;-71
2021/07/28 01:27:26;;;;;;;19.83;12.43;;;18.20;65.10;;;;;;5063923;28;20048;-72
2021/07/28 01:30:17;;;;;;;16.08;12.00;;;18.10;65.10;;;;;;5077924;28;20465;-71
2021/07/28 01:33:07;;;;;;;18.70;12.73;;;18.00;65.10;;;;;;5062780;28;20527;-70
2021/07/28 01:35:57;;;;;;;16.60;12.38;;;18.10;66.50;;;;;;5065343;28;20055;-71
2021/07/28 01:38:46;;;;;;;16.98;12.38;;;18.10;66.90;;;;;;5085185;28;20145;-70
2021/07/28 01:41:40;;;;;;;17.42;12.50;;;18.00;66.50;;;;;;5083207;28;20044;-72
2021/07/28 01:44:28;;;;;;;20.27;14.27;;;18.10;67.30;;;;;;5080244;28;20586;-71
2021/07/28 01:47:16;;;;;;;18.55;13.75;;;18.30;68.10;;;;;;5081177;28;20071;-72
2021/07/28 01:50:07;;;;;;;20.98;15.18;;;18.30;68.30;;;;;;5080977;28;20059;-72
2021/07/28 01:53:01;;;;;;;20.02;13.27;;;18.30;68.10;;;;;;5083361;28;20135;-72
2021/07/28 01:55:52;;;;;;;20.83;14.48;;;18.40;69.30;;;;;;5062284;28;20063;-71
2021/07/28 01:58:43;;;;;;;20.10;14.32;;;18.30;68.80;;;;;;5078010;28;20060;-72
2021/07/28 02:01:32;;;;;;;21.13;14.32;;;18.30;69.30;;;;;;5082480;28;20182;-72
2021/07/28 02:04:20;;;;;;;18.63;13.60;;;18.20;69.20;;;;;;5083083;28;20170;-72
2021/07/28 02:07:09;;;;;;;18.65;13.45;;;18.20;69.00;;;;;;5081117;28;20048;-72
2021/07/28 02:09:57;;;;;;;15.38;11.77;;;18.20;68.30;;;;;;5081999;28;20446;-72
2021/07/28 02:12:45;;;;;;;14.63;9.55;;;18.10;67.50;;;;;;5084806;28;20499;-71
2021/07/28 02:15:36;;;;;;;11.82;9.27;;;18.00;67.00;;;;;;5080061;28;20049;-71
2021/07/28 02:18:24;;;;;;;12.27;9.48;;;17.90;64.80;;;;;;5078455;28;20044;-71
2021/07/28 02:21:13;;;;;;;11.63;9.02;;;18.10;65.10;;;;;;5080460;28;20067;-71
2021/07/28 02:24:04;;;;;;;13.75;10.07;;;18.00;63.00;;;;;;5081230;28;20055;-72
2021/07/28 02:26:52;;;;;;;13.55;9.70;;;18.10;63.40;;;;;;5083367;28;20553;-71
2021/07/28 02:29:40;;;;;;;12.35;9.40;;;18.10;63.00;;;;;;5085488;28;20044;-72
2021/07/28 02:32:30;;;;;;;14.50;9.73;;;18.00;63.10;;;;;;5085016;28;20131;-71
2021/07/28 02:35:19;;;;;;;13.85;9.77;;;18.00;63.40;;;;;;5085439;28;20132;-72
2021/07/28 02:38:07;;;;;;;12.70;9.80;;;18.00;64.10;;;;;;5084906;28;20508;-72
2021/07/28 02:40:55;;;;;;;13.82;9.23;;;18.00;65.60;;;;;;5086839;28;20040;-72
2021/07/28 02:43:44;;;;;;;11.15;9.13;;;17.90;64.80;;;;;;5084040;28;20123;-72
2021/07/28 02:46:32;;;;;;;10.93;9.23;;;17.90;64.80;;;;;;5085422;28;20076;-71
2021/07/28 02:49:22;;;;;;;12.45;9.63;;;17.90;64.80;;;;;;5083516;28;20419;-71
2021/07/28 02:52:11;;;;;;;15.23;9.82;;;17.70;64.70;;;;;;5084577;28;20032;-71
2021/07/28 02:55:05;;;;;;;11.52;9.77;;;17.70;65.70;;;;;;5086946;28;20052;-71
2021/07/28 02:57:53;;;;;;;12.88;9.32;;;17.70;65.80;;;;;;5064963;28;20130;-72
2021/07/28 03:00:41;;;;;;;11.70;9.68;;;17.70;65.10;;;;;;5084710;28;20418;-70
2021/07/28 03:03:30;;;;;;;19.90;10.07;;;17.60;64.70;;;;;;5079568;28;20506;-72
2021/07/28 03:06:20;;;;;;;13.07;10.05;;;17.60;65.60;;;;;;5084725;28;20063;-71
2021/07/28 03:09:08;;;;;;;16.98;10.23;;;17.40;64.50;;;;;;5086861;28;20071;-71
2021/07/28 03:11:57;;;;;;;18.08;10.80;;;17.40;65.90;;;;;;5084283;28;20487;-72
2021/07/28 03:14:45;;;;;;;12.13;10.07;;;17.40;67.00;;;;;;5082607;28;20127;-72
2021/07/28 03:17:33;;;;;;;14.13;10.25;;;17.40;67.20;;;;;;5082245;28;20132;-71
2021/07/28 03:20:22;;;;;;;15.40;9.98;;;17.40;67.30;;;;;;5083563;28;20538;-71
2021/07/28 03:23:11;;;;;;;12.98;9.73;;;17.40;66.60;;;;;;5071489;28;20508;-72
2021/07/28 03:26:00;;;;;;;14.15;9.40;;;17.40;66.50;;;;;;5082571;28;20514;-71
2021/07/28 03:28:48;;;;;;;13.70;10.52;;;17.40;67.20;;;;;;5081818;28;20419;-71
2021/07/28 03:31:37;;;;;;;14.15;10.68;;;17.30;66.80;;;;;;5085774;28;20131;-72
2021/07/28 03:34:25;;;;;;;16.40;11.57;;;17.30;66.40;;;;;;5082685;28;20127;-70
2021/07/28 03:37:14;;;;;;;14.82;11.00;;;17.30;67.40;;;;;;5078284;28;20048;-70
2021/07/28 03:40:04;;;;;;;16.83;11.82;;;17.30;67.40;;;;;;5082364;28;20052;-71
2021/07/28 03:42:53;;;;;;;16.05;11.75;;;17.30;67.80;;;;;;5083276;28;20044;-72
2021/07/28 03:45:41;;;;;;;14.50;11.65;;;17.30;68.00;;;;;;5084604;28;20130;-71
2021/07/28 03:48:31;;;;;;;17.38;12.32;;;17.30;68.20;;;;;;5064881;28;20052;-71
2021/07/28 03:51:19;;;;;;;16.83;12.48;;;17.30;68.50;;;;;;5067585;28;20201;-71
2021/07/28 03:54:08;;;;;;;18.83;13.45;;;17.30;68.70;;;;;;5080133;28;20040;-72
2021/07/28 03:56:57;;;;;;;19.75;14.25;;;17.40;70.30;;;;;;5082052;28;20510;-72
2021/07/28 03:59:46;;;;;;;19.65;14.02;;;17.40;69.70;;;;;;5063021;28;20138;-70
2021/07/28 04:02:34;;;;;;;27.48;14.35;;;17.30;69.40;;;;;;5078271;28;20162;-73
2021/07/28 04:05:23;;;;;;;20.63;14.35;;;17.30;70.00;;;;;;5081811;28;20048;-72
2021/07/28 04:08:12;;;;;;;21.00;13.70;;;17.20;69.20;;;;;;5081758;28;20487;-70
2021/07/28 04:11:00;;;;;;;18.25;13.38;;;17.30;70.10;;;;;;5080483;28;21351;-71
2021/07/28 04:13:50;;;;;;;16.40;13.20;;;17.30;70.00;;;;;;5083588;28;20050;-71
2021/07/28 04:16:38;;;;;;;17.60;13.18;;;17.30;69.80;;;;;;5065045;28;20101;-70
2021/07/28 04:19:27;;;;;;;20.05;13.68;;;17.40;70.10;;;;;;5081541;28;20070;-71
2021/07/28 04:22:15;;;;;;;21.35;14.27;;;17.60;70.60;;;;;;5084936;28;20457;-70
2021/07/28 04:25:05;;;;;;;20.60;14.50;;;17.50;69.90;;;;;;5081828;28;20189;-71
2021/07/28 04:27:53;;;;;;;19.70;13.45;;;17.60;69.20;;;;;;5077085;28;20044;-71
2021/07/28 04:30:43;;;;;;;20.63;15.32;;;17.60;68.90;;;;;;5081142;28;20096;-71
2021/07/28 04:33:32;;;;;;;19.27;14.48;;;17.60;68.50;;;;;;5083254;28;20048;-71
2021/07/28 04:36:20;;;;;;;18.88;13.70;;;17.70;68.90;;;;;;5082698;28;20429;-71
2021/07/28 04:39:08;;;;;;;22.58;13.75;;;17.80;67.80;;;;;;5080000;28;20444;-71
2021/07/28 04:41:57;;;;;;;17.65;14.13;;;17.80;68.10;;;;;;5082074;28;20040;-71
2021/07/28 04:44:45;;;;;;;17.77;13.75;;;17.80;67.80;;;;;;5081840;28;20075;-71
2021/07/28 04:47:35;;;;;;;21.23;13.93;;;17.90;69.00;;;;;;5078997;28;20048;-71
2021/07/28 04:50:23;;;;;;;21.75;13.68;;;17.90;68.70;;;;;;5083626;28;20518;-70
2021/07/28 04:53:12;;;;;;;18.15;12.93;;;17.90;68.30;;;;;;5081807;28;20048;-70
2021/07/28 04:56:00;;;;;;;19.27;12.68;;;18.00;67.70;;;;;;5078663;28;20416;-71
2021/07/28 04:58:49;;;;;;;19.27;13.00;;;18.00;65.70;;;;;;5082916;28;20048;-71
2021/07/28 05:01:37;;;;;;;15.18;11.50;;;18.10;65.00;;;;;;5084101;28;20083;-72
2021/07/28 05:04:27;;;;;;;15.02;11.85;;;18.10;65.50;;;;;;5078086;28;20397;-71
2021/07/28 05:07:15;;;;;;;14.52;11.95;;;18.10;65.10;;;;;;5079778;28;20048;-70
2021/07/28 05:10:04;;;;;;;15.23;11.52;;;18.30;65.30;;;;;;5081891;28;20071;-71
2021/07/28 05:12:53;;;;;;;12.60;10.13;;;18.20;62.60;;;;;;5080767;28;20197;-71
2021/07/28 05:15:41;;;;;;;14.82;11.35;;;18.10;58.30;;;;;;5082434;28;20081;-70
2021/07/28 05:18:30;;;;;;;13.73;10.90;;;18.30;61.40;;;;;;5080506;28;20056;-70
2021/07/28 05:21:19;;;;;;;13.75;10.90;;;18.40;60.60;;;;;;5080325;28;20842;-70
2021/07/28 05:24:08;;;;;;;13.23;10.20;;;18.40;60.10;;;;;;5080948;28;20508;-70
2021/07/28 05:26:56;;;;;;;13.25;10.32;;;18.40;59.70;;;;;;5078798;28;20839;-72
2021/07/28 05:29:44;;;;;;;13.20;10.10;;;18.20;57.50;;;;;;5082130;28;20591;-71
2021/07/28 05:32:33;;;;;;;12.98;9.98;;;18.30;57.20;;;;;;5083625;28;20189;-70
2021/07/28 05:35:22;;;;;;;13.60;9.95;;;18.30;55.90;;;;;;5082074;28;20052;-70
2021/07/28 05:38:12;;;;;;;12.50;9.15;;;18.40;55.50;;;;;;5066043;28;20093;-70
2021/07/28 05:41:02;;;;;;;9.52;8.35;;;18.50;54.70;;;;;;5080477;28;20036;-71
2021/07/28 05:43:51;;;;;;;9.27;7.80;;;18.40;54.40;;;;;;5076873;28;20063;-71
2021/07/28 05:46:39;;;;;;;14.52;8.85;;;18.50;50.40;;;;;;5074024;28;20506;-72
2021/07/28 05:49:27;;;;;;;12.63;9.85;;;18.40;54.50;;;;;;5079075;28;20055;-72
2021/07/28 05:52:16;;;;;;;14.80;10.85;;;18.40;57.50;;;;;;5081182;28;20063;-70
2021/07/28 05:55:07;;;;;;;16.33;11.05;;;18.50;57.00;;;;;;5061503;28;20051;-70
2021/07/28 05:57:58;;;;;;;14.25;10.57;;;18.40;57.00;;;;;;5075842;28;20329;-71
2021/07/28 06:00:46;;;;;;;12.90;9.98;;;18.60;57.30;;;;;;5079229;28;20123;-71
2021/07/28 06:03:36;;;;;;;10.57;9.10;;;18.70;55.90;;;;;;5080391;28;20040;-71
2021/07/28 06:06:26;;;;;;;11.80;8.70;;;18.70;54.00;;;;;;5077289;28;20048;-72
2021/07/28 06:09:15;;;;;;;12.32;9.23;;;18.70;52.20;;;;;;5080798;28;20147;-70
2021/07/28 06:12:06;;;;;;;12.70;8.55;;;18.70;48.60;;;;;;5083523;28;20587;-72
2021/07/28 06:14:54;;;;;;;13.18;8.13;;;18.70;46.70;;;;;;5080734;28;20137;-73
2021/07/28 06:17:42;;;;;;;10.95;8.23;;;18.70;47.10;;;;;;5064140;28;20040;-70
2021/07/28 06:20:31;;;;;;;13.75;8.00;;;18.60;42.70;;;;;;5080323;28;20123;-71
2021/07/28 06:23:19;;;;;;;10.75;8.35;;;18.60;46.10;;;;;;5085402;28;20177;-70
2021/07/28 06:26:07;;;;;;;11.70;8.35;;;18.60;44.60;;;;;;5081148;28;20522;-71
2021/07/28 06:28:57;;;;;;;9.90;7.88;;;18.50;44.60;;;;;;5083617;28;20044;-72
2021/07/28 06:31:45;;;;;;;11.93;9.55;;;18.50;41.50;;;;;;5084704;28;20141;-70
2021/07/28 06:34:34;;;;;;;12.80;8.02;;;18.60;44.70;;;;;;5084623;28;20102;-71
2021/07/28 06:37:22;;;;;;;13.75;8.23;;;18.70;41.60;;;;;;5072853;28;20296;-71
2021/07/28 06:40:12;;;;;;;9.88;7.45;;;18.60;40.60;;;;;;5078592;28;20055;-71
2021/07/28 06:43:00;;;;;;;12.77;7.82;;;18.50;36.00;;;;;;5081568;28;20166;-70
2021/07/28 06:45:50;;;;;;;10.38;7.65;;;18.50;39.70;;;;;;5082830;28;20051;-71
2021/07/28 06:48:40;;;;;;;14.07;7.72;;;18.60;44.80;;;;;;5077495;28;20040;-71
2021/07/28 06:51:29;;;;;;;11.52;8.25;;;18.50;45.20;;;;;;5083309;28;20491;-71
2021/07/28 06:54:18;;;;;;;10.25;7.03;;;18.50;44.60;;;;;;5079444;28;20063;-72
2021/07/28 06:57:06;;;;;;;12.90;8.10;;;18.50;43.20;;;;;;5071775;28;20495;-71
2021/07/28 06:59:55;;;;;;;13.32;7.63;;;18.60;43.70;;;;;;5082043;28;20166;-77
2021/07/28 07:02:45;;;;;;;11.02;7.30;;;18.60;45.70;;;;;;5084053;28;20047;-72
2021/07/28 07:05:34;;;;;;;8.80;6.90;;;18.50;42.00;;;;;;5080507;28;20060;-71
2021/07/28 07:08:22;;;;;;;12.18;7.75;;;18.60;42.50;;;;;;5080239;28;20048;-71
2021/07/28 07:11:10;;;;;;;10.35;7.97;;;18.60;42.00;;;;;;5082320;28;20155;-71
2021/07/28 07:14:02;;;;;;;12.60;8.60;;;18.80;43.30;;;;;;5083890;28;20068;-71
2021/07/28 07:16:50;;;;;;;11.35;7.05;;;18.90;43.20;;;;;;5078912;28;20048;-71
2021/07/28 07:19:40;;;;;;;8.55;6.63;;;18.90;36.40;;;;;;5078478;28;20056;-71
2021/07/28 07:22:28;;;;;;;11.38;6.95;;;18.90;36.40;;;;;;5080954;28;20522;-75
2021/07/28 07:25:17;;;;;;;11.70;6.95;;;19.00;35.00;;;;;;5084343;28;20539;-75
2021/07/28 07:28:06;;;;;;;8.73;6.57;;;19.00;37.90;;;;;;5083695;28;20048;-76
2021/07/28 07:30:54;;;;;;;10.10;6.38;;;19.10;36.60;;;;;;5083573;28;20052;-75
2021/07/28 07:33:43;;;;;;;8.45;6.40;;;19.00;33.90;;;;;;5083085;28;20141;-76
2021/07/28 07:36:32;;;;;;;8.10;5.55;;;19.10;37.30;;;;;;5080989;28;20047;-75
2021/07/28 07:39:21;;;;;;;8.52;6.20;;;19.20;30.00;;;;;;5082185;28;20052;-75
2021/07/28 07:42:09;;;;;;;10.57;6.55;;;19.30;34.70;;;;;;5082902;28;20048;-75
2021/07/28 07:44:58;;;;;;;8.82;5.32;;;19.30;33.70;;;;;;5084459;28;20450;-75
2021/07/28 07:47:46;;;;;;;6.88;5.95;;;19.40;36.10;;;;;;5082455;28;20519;-72
2021/07/28 07:50:38;;;;;;;8.88;5.97;;;19.30;36.70;;;;;;5084354;28;20059;-71
2021/07/28 07:53:31;;;;;;;9.48;5.97;;;19.30;34.50;;;;;;5081975;28;20627;-71
2021/07/28 07:56:21;;;;;;;10.05;6.10;;;19.30;31.70;;;;;;5082898;28;20048;-71
2021/07/28 07:59:12;;;;;;;9.82;6.60;;;19.50;32.60;;;;;;5080366;28;20046;-72
2021/07/28 08:02:00;;;;;;;9.68;6.68;;;19.30;31.10;;;;;;5082882;28;20052;-71
2021/07/28 08:04:49;;;;;;;9.10;6.10;;;19.30;31.60;;;;;;5080186;28;20048;-71
2021/07/28 08:07:38;;;;;;;8.80;5.88;;;19.40;31.30;;;;;;5082855;28;20469;-71
2021/07/28 08:10:27;;;;;;;9.93;5.82;;;19.50;29.40;;;;;;5081730;28;20054;-71
2021/07/28 08:13:16;;;;;;;9.85;6.03;;;19.50;30.10;;;;;;5077234;28;20188;-71
2021/07/28 08:16:10;;;;;;;9.35;6.60;;;19.50;28.60;;;;;;5083797;28;20047;-71
2021/07/28 08:18:59;;;;;;;8.38;5.43;;;19.70;27.80;;;;;;5078400;28;20051;-70
2021/07/28 08:21:47;;;;;;;9.80;5.05;;;19.60;27.40;;;;;;5079522;28;20073;-71
2021/07/28 08:24:36;;;;;;;7.45;5.72;;;19.70;27.20;;;;;;5078988;28;20187;-71
2021/07/28 08:27:27;;;;;;;9.30;5.55;;;19.80;28.70;;;;;;5080219;28;20062;-72
2021/07/28 08:30:16;;;;;;;7.57;5.45;;;19.80;28.30;;;;;;5083926;28;20111;-71
2021/07/28 08:33:04;;;;;;;8.55;5.25;;;19.80;25.80;;;;;;5081882;28;20477;-70
2021/07/28 08:36:13;;;;;;;7.88;5.28;;;19.80;24.90;;;;;;5081553;28;20134;-71
2021/07/28 08:39:01;;;;;;;7.55;5.32;;;19.90;27.30;;;;;;5061832;28;20369;-71
2021/07/28 08:41:53;;;;;;;9.20;5.22;;;19.80;24.10;;;;;;5078420;28;20054;-72
2021/07/28 08:44:43;;;;;;;7.13;5.32;;;20.00;24.00;;;;;;5085924;28;20044;-70
2021/07/28 08:47:32;;;;;;;33.05;22.73;;;20.00;22.40;;;;;;5079199;28;20182;-71
2021/07/28 08:50:20;;;;;;;7.60;5.45;;;20.00;23.60;;;;;;5082372;28;20520;-70
2021/07/28 08:53:09;;;;;;;6.80;4.93;;;20.00;21.90;;;;;;5081702;28;20140;-71
2021/07/28 08:56:00;;;;;;;7.82;5.18;;;20.00;22.30;;;;;;5062486;28;20632;-71
2021/07/28 08:58:49;;;;;;;8.93;5.07;;;20.10;21.60;;;;;;5080461;28;20419;-71
2021/07/28 09:01:39;;;;;;;9.23;4.90;;;20.20;21.70;;;;;;5081416;28;20127;-70
2021/07/28 09:04:28;;;;;;;8.95;4.65;;;20.20;18.00;;;;;;5081453;28;20052;-70
2021/07/28 09:07:20;;;;;;;7.68;4.78;;;20.30;13.60;;;;;;5079930;28;20080;-70
2021/07/28 09:10:13;;;;;;;7.70;4.60;;;20.20;16.60;;;;;;5082173;28;20509;-71
2021/07/28 09:13:01;;;;;;;6.60;5.28;;;20.40;10.10;;;;;;5075461;28;20060;-71
2021/07/28 09:15:51;;;;;;;7.15;4.55;;;20.60;12.30;;;;;;5081816;28;20040;-72
2021/07/28 09:18:43;;;;;;;11.07;4.50;;;21.10;12.30;;;;;;5079544;28;20540;-72
2021/07/28 09:21:32;;;;;;;14.00;5.18;;;21.10;11.20;;;;;;5080234;28;20552;-70
2021/07/28 09:24:26;;;;;;;5.93;4.72;;;21.30;9.00;;;;;;5080734;28;20127;-71
2021/07/28 09:27:44;;;;;;;10.63;6.13;;;20.90;7.30;;;;;;5073988;28;20054;-70
2021/07/28 09:30:34;;;;;;;5.50;4.38;;;21.30;5.80;;;;;;5083680;28;20123;-81
2021/07/28 09:33:23;;;;;;;5.55;4.35;;;21.30;4.20;;;;;;5084048;28;20052;-76
2021/07/28 09:36:17;;;;;;;10.15;4.78;;;21.60;3.60;;;;;;5083309;28;20782;-71
2021/07/28 09:39:05;;;;;;;8.48;4.43;;;21.80;4.50;;;;;;5084461;28;20083;-72
2021/07/28 09:42:11;;;;;;;9.13;4.80;;;21.60;2.00;;;;;;5082532;28;20044;-71
2021/07/28 09:45:00;;;;;;;7.03;4.63;;;21.80;1.00;;;;;;5087496;28;20499;-76
2021/07/28 09:47:53;;;;;;;7.20;3.67;;;21.60;1.00;;;;;;5081333;28;20067;-75
2021/07/28 09:50:42;;;;;;;4.97;3.97;;;22.20;1.00;;;;;;5069089;28;20066;-72
2021/07/28 09:53:33;;;;;;;9.40;4.88;;;22.30;1.00;;;;;;5083111;28;20484;-72
2021/07/28 09:56:45;;;;;;;38.08;6.65;;;22.40;1.00;;;;;;5083403;28;20047;-71
2021/07/28 09:59:34;;;;;;;5.95;4.10;;;22.60;1.00;;;;;;5079557;28;20045;-74
2021/07/28 10:02:45;;;;;;;12.50;4.50;;;22.50;1.00;;;;;;5075216;28;20048;-71
2021/07/28 10:05:40;;;;;;;8.02;4.35;;;22.50;1.00;;;;;;5081020;28;20103;-72
2021/07/28 10:08:30;;;;;;;;;;;22.50;1.00;;;;;;5068113;28;20447;-71
2021/07/28 10:11:23;;;;;;;4.97;3.83;;;22.50;1.00;;;;;;5070254;28;20019;-85
2021/07/28 10:14:12;;;;;;;8.48;4.25;;;22.30;1.00;;;;;;5064863;28;20044;-70
2021/07/28 10:17:01;;;;;;;7.60;3.92;;;22.60;1.00;;;;;;5068364;28;20055;-71
2021/07/28 10:19:50;;;;;;;11.30;4.97;;;22.70;1.00;;;;;;5082082;28;20487;-70
2021/07/28 10:22:52;;;;;;;5.00;3.40;;;22.60;1.00;;;;;;5081658;28;20040;-71
2021/07/28 10:25:41;;;;;;;5.65;4.03;;;22.70;1.00;;;;;;5064827;28;20040;-70
2021/07/28 10:28:32;;;;;;;5.70;3.72;;;22.30;1.00;;;;;;5078476;28;20047;-71
2021/07/28 10:31:24;;;;;;;6.55;4.10;;;22.80;1.00;;;;;;5085860;28;20044;-71
2021/07/28 10:34:24;;;;;;;4.80;3.42;;;23.00;1.00;;;;;;5080712;28;20048;-70
2021/07/28 10:37:12;;;;;;;6.53;4.47;;;23.10;1.00;;;;;;5065317;28;20060;-71
2021/07/28 10:40:01;;;;;;;6.82;3.85;;;22.90;1.00;;;;;;5068795;28;20057;-71
2021/07/28 10:43:02;;;;;;;6.68;3.63;;;22.90;1.00;;;;;;5081700;28;20086;-71
2021/07/28 10:45:57;;;;;;;5.25;3.97;;;22.70;1.00;;;;;;5070920;28;20117;-69
2021/07/28 10:48:50;;;;;;;7.10;4.47;;;22.10;1.00;;;;;;5079040;28;20211;-70
2021/07/28 10:51:51;;;;;;;6.25;4.00;;;21.90;1.00;;;;;;5080980;28;20043;-70
2021/07/28 10:55:17;;;;;;;5.30;4.03;;;22.20;1.00;;;;;;5063967;28;20403;-71
2021/07/28 10:58:24;;;;;;;12.15;5.85;;;22.30;1.00;;;;;;5076749;28;20093;-71
2021/07/28 11:01:14;;;;;;;6.45;4.43;;;22.90;1.00;;;;;;5081641;28;20100;-70
2021/07/28 11:04:24;;;;;;;7.35;4.30;;;23.10;1.00;;;;;;5078804;28;20112;-70
2021/07/28 11:07:13;;;;;;;7.78;4.68;;;23.00;1.00;;;;;;5078339;28;20436;-71
2021/07/28 11:10:04;;;;;;;5.82;4.18;;;22.50;1.00;;;;;;5077367;28;20201;-70
2021/07/28 11:12:53;;;;;;;7.50;4.50;;;22.80;1.00;;;;;;5079710;28;20403;-71
2021/07/28 11:15:52;;;;;;;5.55;3.83;;;23.30;1.00;;;;;;5077832;28;20047;-71
2021/07/28 11:18:44;;;;;;;5.97;4.47;;;23.10;1.00;;;;;;5062583;28;20052;-72
2021/07/28 11:21:33;;;;;;;5.70;3.92;;;22.90;1.00;;;;;;5080210;28;20565;-72
2021/07/28 11:24:22;;;;;;;5.47;3.90;;;23.50;1.00;;;;;;5080907;28;20435;-70
2021/07/28 11:27:13;;;;;;;7.22;4.32;;;23.80;1.00;;;;;;5080523;28;20063;-71
2021/07/28 11:30:12;;;;;;;4.97;3.60;;;23.50;1.00;;;;;;5081085;28;20100;-71
2021/07/28 11:33:12;;;;;;;6.10;3.97;;;23.40;1.00;;;;;;5060415;28;20344;-71
2021/07/28 11:36:03;;;;;;;6.03;3.83;;;23.30;1.00;;;;;;5071146;28;20047;-71
2021/07/28 11:38:51;;;;;;;5.40;3.63;;;23.50;1.00;;;;;;5077976;28;20048;-70
2021/07/28 11:41:40;;;;;;;6.38;3.95;;;23.50;1.00;;;;;;5066198;28;20051;-72
2021/07/28 11:44:29;;;;;;;4.75;3.60;;;23.70;1.00;;;;;;5081196;28;20150;-72
2021/07/28 11:47:23;;;;;;;4.97;3.67;;;23.50;1.00;;;;;;5038389;28;20511;-72
2021/07/28 11:50:13;;;;;;;4.47;3.53;;;23.60;1.00;;;;;;5081576;28;20044;-73
2021/07/28 11:53:03;;;;;;;4.25;3.63;;;23.40;1.00;;;;;;5073474;28;20072;-72
2021/07/28 11:55:56;;;;;;;9.32;4.15;;;23.30;1.00;;;;;;5076129;28;20174;-71
2021/07/28 11:58:45;;;;;;;4.57;3.92;;;23.60;1.00;;;;;;5080285;28;20128;-71
2021/07/28 12:01:35;;;;;;;4.97;3.92;;;23.70;1.00;;;;;;5082718;28;20048;-70
2021/07/28 12:04:25;;;;;;;5.38;3.70;;;24.20;1.00;;;;;;5070230;28;20040;-71
2021/07/28 12:07:21;;;;;;;6.18;3.28;;;24.90;1.00;;;;;;5078585;28;20072;-71
2021/07/28 12:10:10;;;;;;;6.30;3.72;;;24.60;1.00;;;;;;5079465;28;20210;-71
2021/07/28 12:13:20;;;;;;;6.40;3.90;;;24.10;1.00;;;;;;5080608;28;20040;-69
2021/07/28 12:16:09;;;;;;;4.00;3.10;;;25.00;1.00;;;;;;5078006;28;20059;-70
2021/07/28 12:19:06;;;;;;;5.85;3.58;;;25.10;1.00;;;;;;5078174;28;20041;-71
2021/07/28 12:21:57;;;;;;;5.25;3.67;;;24.80;1.00;;;;;;5053128;28;20094;-70
2021/07/28 12:24:46;;;;;;;6.97;3.90;;;24.30;1.00;;;;;;5065524;28;20066;-70
2021/07/28 12:27:55;;;;;;;7.13;3.65;;;24.80;1.00;;;;;;5080827;28;20151;-71
2021/07/28 12:30:43;;;;;;;5.75;3.55;;;25.10;1.00;;;;;;5082213;28;20048;-70
2021/07/28 12:33:32;;;;;;;5.68;3.80;;;24.90;1.00;;;;;;5080728;28;20040;-70
2021/07/28 12:36:27;;;;;;;7.60;3.95;;;24.90;1.00;;;;;;5075028;28;20123;-70
2021/07/28 12:39:16;;;;;;;5.85;4.10;;;24.60;1.00;;;;;;5082931;28;20625;-71
2021/07/28 12:42:04;;;;;;;4.50;3.92;;;24.50;1.00;;;;;;5084282;28;20056;-70
2021/07/28 12:44:54;;;;;;;5.32;3.88;;;24.30;1.00;;;;;;5081585;28;20560;-71
2021/07/28 12:47:43;;;;;;;6.93;4.82;;;24.20;1.00;;;;;;5080955;28;20427;-71
2021/07/28 12:50:32;;;;;;;3.85;3.30;;;24.30;1.00;;;;;;5079489;28;20494;-71
2021/07/28 12:53:24;;;;;;;6.38;3.88;;;24.20;1.00;;;;;;5080921;28;20389;-71
2021/07/28 12:56:12;;;;;;;7.97;4.05;;;24.60;1.00;;;;;;5076036;28;20119;-71
2021/07/28 12:59:06;;;;;;;4.50;3.47;;;24.40;1.00;;;;;;5077436;28;20189;-69
2021/07/28 13:01:58;;;;;;;4.70;3.75;;;24.50;1.00;;;;;;5081176;28;20127;-71
2021/07/28 13:04:47;;;;;;;6.47;3.50;;;24.80;1.00;;;;;;5063215;28;20047;-70
2021/07/28 13:07:42;;;;;;;6.38;3.65;;;24.70;1.00;;;;;;5075451;28;20165;-71
2021/07/28 13:10:31;;;;;;;5.78;3.78;;;24.80;1.00;;;;;;5081131;28;20177;-71
2021/07/28 13:13:19;;;;;;;5.95;3.90;;;24.60;1.00;;;;;;5066830;28;20075;-71
2021/07/28 13:16:08;;;;;;;4.10;3.70;;;24.50;1.00;;;;;;5066094;28;20123;-70
2021/07/28 13:18:58;;;;;;;7.13;3.92;;;24.40;1.00;;;;;;5079044;28;20186;-71
2021/07/28 13:21:46;;;;;;;4.22;3.50;;;24.40;1.00;;;;;;5069645;28;20477;-70
2021/07/28 13:24:35;;;;;;;4.47;3.58;;;24.30;1.00;;;;;;5083598;28;20083;-70
2021/07/28 13:27:23;;;;;;;8.77;6.25;;;25.00;1.00;;;;;;5080843;28;20067;-70
2021/07/28 13:30:13;;;;;;;4.93;3.78;;;25.20;1.00;;;;;;5072403;28;20044;-70
2021/07/28 13:33:02;;;;;;;4.07;3.30;;;25.30;1.00;;;;;;5076100;28;20055;-70
2021/07/28 13:35:52;;;;;;;4.45;3.72;;;25.10;1.00;;;;;;5062346;28;20067;-71
2021/07/28 13:38:41;;;;;;;5.90;3.58;;;25.50;1.00;;;;;;5061532;28;20075;-70
2021/07/28 13:41:29;;;;;;;4.65;3.55;;;25.80;1.00;;;;;;5082083;28;20411;-71
2021/07/28 13:44:18;;;;;;;4.13;3.60;;;25.10;1.00;;;;;;5066905;28;20135;-70
2021/07/28 13:47:10;;;;;;;5.03;3.60;;;25.30;1.00;;;;;;5080213;28;20567;-71
2021/07/28 13:50:00;;;;;;;4.38;3.13;;;24.70;1.00;;;;;;5060187;28;20113;-70
2021/07/28 13:52:50;;;;;;;6.38;3.72;;;24.90;1.00;;;;;;5061266;28;20933;-69
2021/07/28 13:55:39;;;;;;;6.28;3.60;;;25.10;1.00;;;;;;5074862;28;20040;-70
2021/07/28 13:58:27;;;;;;;4.75;3.90;;;25.10;1.00;;;;;;5077090;28;20033;-70
2021/07/28 14:01:16;;;;;;;5.40;4.18;;;25.10;1.00;;;;;;5077865;28;20044;-70
2021/07/28 14:04:05;;;;;;;4.68;3.38;;;24.90;1.00;;;;;;5077999;28;20055;-69
2021/07/28 14:06:54;;;;;;;5.32;3.72;;;25.10;1.00;;;;;;5058957;28;20055;-70
2021/07/28 14:09:43;;;;;;;6.63;3.60;;;25.20;1.00;;;;;;5062731;28;20051;-70
2021/07/28 14:12:32;;;;;;;5.60;3.17;;;25.10;1.00;;;;;;5079857;28;20134;-70
2021/07/28 14:15:22;;;;;;;4.20;3.50;;;25.00;1.00;;;;;;5074170;28;20055;-71
2021/07/28 14:18:10;;;;;;;3.70;3.20;;;25.00;1.00;;;;;;5073798;28;20047;-70
2021/07/28 14:20:59;;;;;;;7.47;3.50;;;24.70;1.00;;;;;;5073829;28;20048;-70
2021/07/28 14:23:47;;;;;;;8.38;3.35;;;24.30;1.00;;;;;;5063976;28;20084;-70
2021/07/28 14:26:37;;;;;;;4.97;3.35;;;24.40;1.00;;;;;;5082625;28;20052;-70
2021/07/28 14:29:26;;;;;;;3.90;3.25;;;24.40;1.00;;;;;;5079337;28;20052;-70
2021/07/28 14:32:14;;;;;;;3.30;3.00;;;24.30;1.00;;;;;;5074444;28;20499;-71
2021/07/28 14:35:04;;;;;;;5.68;3.55;;;24.30;1.00;;;;;;5076815;28;20044;-71
2021/07/28 14:37:52;;;;;;;4.00;3.58;;;24.20;1.00;;;;;;5073793;28;20056;-71
2021/07/28 14:40:41;;;;;;;6.07;3.50;;;24.10;1.00;;;;;;5082590;28;20557;-69
2021/07/28 14:43:33;;;;;;;6.38;3.50;;;24.10;1.00;;;;;;5079420;28;20125;-69
2021/07/28 14:46:22;;;;;;;11.25;3.80;;;23.80;1.00;;;;;;5080959;28;20052;-70